Yaupon Beach, North Carolina
Current Conditions -  °F | °C
As of 10:15 PM on Friday 21 Nov 2014 (Local Time) from KSUT Reporting Station
Clear Clear  
Wind Chill: 36°   Ceiling: Unl
Heat Index: 39°   Visibility: 10mi
Dew Point: 17°   Wind: 5mph
Humidity: 41%   Direction: 20°NNE
Pressure: 30.52"   Gusts: NA
Location:  33.9216°N, 78.1244°W
Report Text: KSUT 220315Z AUTO 02004KT 10SM CLR 04/M08 A3052 RMK AO2 T00401082
Loading
Personal Weather Stations






























Interactive Weather Map New forecast layout! Learn more

10-Day Weather Forecast

Advertisements
Track Severe Weather on mobile